Time;durP1;ratioP1;P1;durP2;ratioP2;P2;SDS_P1;SDS_P2;PMS_P1;PMS_P2;Temp;Humidity;BMP_temperature;BMP_pressure;BME280_temperature;BME280_humidity;BME280_pressure;Samples;Min_cycle;Max_cycle;Signal;HPM_P1;HPM_P2
2023/03/22 00:00:27;;;;;;;9.27;7.07;;;;;;;10.53;94.67;100694.47;5063181;28;20045;-73
2023/03/22 00:02:55;;;;;;;12.90;7.53;;;;;;;10.51;95.23;100699.00;5070964;28;20560;-74
2023/03/22 00:05:20;;;;;;;9.40;6.90;;;;;;;10.47;95.47;100700.25;5064065;28;20029;-74
2023/03/22 00:07:49;;;;;;;7.78;6.38;;;;;;;10.40;96.00;100701.78;5068381;28;20401;-73
2023/03/22 00:10:15;;;;;;;10.77;6.13;;;;;;;10.32;97.01;100699.03;5063842;28;20047;-74
2023/03/22 00:12:41;;;;;;;10.02;6.97;;;;;;;10.24;97.34;100692.72;5062773;28;20028;-74
2023/03/22 00:15:07;;;;;;;8.77;6.85;;;;;;;10.22;98.02;100686.84;5064580;28;20048;-74
2023/03/22 00:17:32;;;;;;;10.52;6.85;;;;;;;10.22;98.33;100678.19;5066175;28;20032;-74
2023/03/22 00:19:58;;;;;;;11.57;8.52;;;;;;;10.22;98.54;100676.41;5061413;28;20043;-73
2023/03/22 00:22:24;;;;;;;9.93;7.90;;;;;;;10.23;98.65;100677.25;5065809;28;20370;-74
2023/03/22 00:24:50;;;;;;;14.60;8.85;;;;;;;10.23;98.88;100680.66;5063985;28;20041;-74
2023/03/22 00:27:15;;;;;;;13.90;8.02;;;;;;;10.24;98.97;100681.50;5057988;28;20056;-74
2023/03/22 00:29:41;;;;;;;11.10;7.85;;;;;;;10.26;98.54;100688.19;5056381;28;20138;-73
2023/03/22 00:32:06;;;;;;;13.45;8.20;;;;;;;10.29;98.05;100684.50;5057822;28;20115;-73
2023/03/22 00:34:32;;;;;;;11.20;8.43;;;;;;;10.34;97.61;100676.28;5064216;28;20020;-73
2023/03/22 00:36:58;;;;;;;10.77;7.57;;;;;;;10.37;97.49;100681.22;5063967;28;20064;-73
2023/03/22 00:39:23;;;;;;;15.30;8.57;;;;;;;10.35;97.30;100673.53;5070348;28;20133;-73
2023/03/22 00:41:50;;;;;;;13.88;9.23;;;;;;;10.36;97.05;100676.97;5059438;28;20029;-74
2023/03/22 00:44:15;;;;;;;11.10;7.25;;;;;;;10.36;97.34;100676.97;5058475;28;20534;-73
2023/03/22 00:46:41;;;;;;;13.68;6.88;;;;;;;10.32;98.11;100673.81;5059914;28;20032;-74
2023/03/22 00:49:06;;;;;;;9.82;7.05;;;;;;;10.28;98.47;100673.25;5067298;28;20032;-74
2023/03/22 00:51:31;;;;;;;10.13;7.05;;;;;;;10.22;99.04;100665.19;5065603;28;20021;-73
2023/03/22 00:53:57;;;;;;;8.18;6.88;;;;;;;10.17;99.82;100665.56;5056800;28;20123;-74
2023/03/22 00:56:24;;;;;;;16.95;7.45;;;;;;;10.12;100.00;100661.72;5061198;28;20070;-73
2023/03/22 00:58:49;;;;;;;10.95;7.47;;;;;;;10.11;100.00;100654.88;5059296;28;20033;-73
2023/03/22 01:01:15;;;;;;;11.82;8.27;;;;;;;10.11;100.00;100649.66;5050364;28;20033;-74
2023/03/22 01:03:42;;;;;;;10.38;7.72;;;;;;;10.12;100.00;100646.09;5063237;28;20060;-74
2023/03/22 01:06:08;;;;;;;10.32;8.02;;;;;;;10.14;99.92;100642.41;5057807;28;20110;-73
2023/03/22 01:08:37;;;;;;;10.95;7.95;;;;;;;10.16;99.82;100644.84;5064126;28;20029;-74
2023/03/22 01:11:05;;;;;;;12.02;8.00;;;;;;;10.17;99.98;100644.72;5065536;28;20036;-74
2023/03/22 01:13:30;;;;;;;9.60;7.13;;;;;;;10.18;100.00;100637.75;5063302;28;20130;-73
2023/03/22 01:15:56;;;;;;;8.93;7.03;;;;;;;10.17;100.00;100636.91;5061144;28;20063;-73
2023/03/22 01:18:21;;;;;;;13.93;7.82;;;;;;;10.13;100.00;100632.94;5060900;28;20021;-74
2023/03/22 01:20:47;;;;;;;14.95;8.27;;;;;;;10.11;100.00;100637.47;5065601;28;20035;-74
2023/03/22 01:23:12;;;;;;;10.70;7.40;;;;;;;10.09;100.00;100636.78;5063735;28;20041;-74
2023/03/22 01:25:38;;;;;;;9.65;7.63;;;;;;;10.12;100.00;100631.28;5064632;28;20390;-74
2023/03/22 01:28:05;;;;;;;11.73;6.93;;;;;;;10.11;100.00;100629.66;5056717;28;20037;-74
2023/03/22 01:30:32;;;;;;;9.13;7.38;;;;;;;10.11;100.00;100627.03;5068349;28;20048;-74
2023/03/22 01:32:57;;;;;;;16.60;6.30;;;;;;;10.08;100.00;100629.91;5064216;28;20024;-74
2023/03/22 01:35:23;;;;;;;11.65;7.15;;;;;;;10.09;100.00;100634.16;5059309;28;20040;-74
2023/03/22 01:37:48;;;;;;;7.75;6.93;;;;;;;10.06;100.00;100626.63;5057188;28;20032;-74
2023/03/22 01:40:15;;;;;;;10.05;6.07;;;;;;;10.06;100.00;100621.44;5067094;28;20028;-73
2023/03/22 01:42:40;;;;;;;8.55;6.47;;;;;;;10.07;100.00;100622.25;5061627;28;20048;-74
2023/03/22 01:45:12;;;;;;;7.85;6.93;;;;;;;10.07;100.00;100622.25;5061541;28;20036;-74
2023/03/22 01:47:40;;;;;;;12.43;7.85;;;;;;;10.10;100.00;100603.75;5061571;28;20024;-74
2023/03/22 01:50:07;;;;;;;12.32;7.97;;;;;;;10.12;100.00;100605.25;5060374;28;20132;-74
2023/03/22 01:52:33;;;;;;;13.88;7.30;;;;;;;10.13;100.00;100612.09;5059535;28;20095;-74
2023/03/22 01:54:59;;;;;;;9.75;7.47;;;;;;;10.14;100.00;100612.94;5056640;28;20033;-73
2023/03/22 01:57:24;;;;;;;9.05;6.43;;;;;;;10.12;100.00;100612.25;5057966;28;20055;-73
2023/03/22 01:59:50;;;;;;;10.85;7.05;;;;;;;10.08;100.00;100609.09;5065714;28;20494;-74
2023/03/22 02:02:19;;;;;;;8.38;6.05;;;;;;;10.08;100.00;100608.28;5063671;28;20059;-73
2023/03/22 02:04:49;;;;;;;8.73;6.97;;;;;;;10.08;100.00;100616.09;5063831;28;20059;-73
2023/03/22 02:07:24;;;;;;;9.63;7.30;;;;;;;10.07;100.00;100615.25;5057062;28;20484;-74
2023/03/22 02:09:51;;;;;;;10.02;7.57;;;;;;;10.09;100.00;100609.91;5059380;28;20040;-73
2023/03/22 02:12:47;;;;;;;11.80;8.18;;;;;;;10.09;100.00;100613.34;5064676;28;20413;-74
2023/03/22 02:15:19;;;;;;;12.85;8.73;;;;;;;10.09;100.00;100608.13;5058755;28;20088;-74
2023/03/22 02:17:50;;;;;;;11.68;8.65;;;;;;;10.13;100.00;100612.09;5059553;28;20049;-74
2023/03/22 02:20:46;;;;;;;10.10;8.52;;;;;;;10.15;99.03;100609.38;5065968;28;20059;-74
2023/03/22 02:23:39;;;;;;;15.25;9.68;;;;;;;10.18;98.79;100607.31;5063817;28;20073;-74
2023/03/22 02:26:14;;;;;;;10.93;8.90;;;;;;;10.19;98.80;100609.00;5059354;28;20076;-73
2023/03/22 02:28:48;;;;;;;12.88;9.13;;;;;;;10.20;98.90;100615.03;5055954;28;20539;-74
2023/03/22 02:31:43;;;;;;;15.00;10.48;;;;;;;10.17;97.62;100608.28;5058713;28;20143;-74
2023/03/22 02:34:14;;;;;;;11.50;10.30;;;;;;;10.27;97.11;100609.13;5062312;28;20169;-74
2023/03/22 02:37:06;;;;;;;12.55;9.77;;;;;;;10.32;97.02;100600.06;5060641;28;20038;-73
2023/03/22 02:39:47;;;;;;;13.07;9.63;;;;;;;10.33;96.73;100606.94;5064750;28;20021;-73
2023/03/22 02:42:22;;;;;;;18.55;10.25;;;;;;;10.31;96.66;100604.47;5063903;28;20043;-74
2023/03/22 02:45:14;;;;;;;15.45;10.30;;;;;;;10.30;96.40;100601.03;5060616;28;20152;-74
2023/03/22 02:48:10;;;;;;;13.57;9.45;;;;;;;10.29;96.56;100607.19;5056972;28;20070;-74
2023/03/22 02:50:45;;;;;;;11.15;8.93;;;;;;;10.29;96.54;100608.97;5059795;28;20119;-74
2023/03/22 02:53:16;;;;;;;16.98;9.68;;;;;;;10.29;96.93;100601.16;5057412;28;20029;-74
2023/03/22 02:55:52;;;;;;;15.00;9.68;;;;;;;10.29;96.92;100604.59;5063432;28;20048;-74
2023/03/22 02:58:45;;;;;;;15.93;9.07;;;;;;;10.27;97.40;100597.88;5066276;28;20432;-74
2023/03/22 03:01:28;;;;;;;12.95;9.02;;;;;;;10.24;97.92;100603.38;5066998;28;20153;-74
2023/03/22 03:03:57;;;;;;;14.80;9.70;;;;;;;10.21;98.68;100601.88;5062087;28;20094;-74
2023/03/22 03:06:25;;;;;;;12.05;9.93;;;;;;;10.18;98.65;100609.91;5063045;28;20028;-74
2023/03/22 03:08:52;;;;;;;12.98;8.60;;;;;;;10.20;98.46;100599.41;5062369;28;20142;-74
2023/03/22 03:11:19;;;;;;;11.07;8.50;;;;;;;10.20;98.36;100605.44;5063010;28;20031;-73
2023/03/22 03:13:48;;;;;;;14.05;9.25;;;;;;;10.21;98.40;100614.06;5067983;28;20035;-74
2023/03/22 03:16:18;;;;;;;12.90;9.32;;;;;;;10.20;98.33;100608.03;5065130;28;20508;-74
2023/03/22 03:19:06;;;;;;;11.20;7.88;;;;;;;10.17;98.42;100608.28;5058095;28;20386;-74
2023/03/22 03:21:55;;;;;;;17.83;9.10;;;;;;;10.16;98.75;100611.84;5065676;28;20135;-73
2023/03/22 03:24:34;;;;;;;12.00;8.18;;;;;;;10.12;98.82;100609.66;5066416;28;20037;-74
2023/03/22 03:27:18;;;;;;;11.32;7.78;;;;;;;10.11;98.51;100608.00;5061934;28;20028;-74
2023/03/22 03:29:53;;;;;;;11.00;8.02;;;;;;;10.10;99.12;100612.38;5060106;28;20032;-74
2023/03/22 03:32:27;;;;;;;11.27;8.48;;;;;;;10.09;98.90;100605.53;5062127;28;20659;-74
2023/03/22 03:35:03;;;;;;;11.35;8.23;;;;;;;10.09;99.08;100605.53;5063084;28;20473;-74
2023/03/22 03:37:47;;;;;;;12.57;8.57;;;;;;;10.09;98.26;100597.72;5066446;28;20029;-74
2023/03/22 03:40:18;;;;;;;9.85;8.20;;;;;;;10.11;98.15;100603.63;5062157;28;20177;-74
2023/03/22 03:42:50;;;;;;;10.35;7.40;;;;;;;10.12;97.58;100609.66;5067414;28;20030;-74
2023/03/22 03:45:18;;;;;;;12.30;7.85;;;;;;;10.11;97.62;100601.00;5064896;28;20093;-74
2023/03/22 03:47:45;;;;;;;11.95;7.90;;;;;;;10.13;97.74;100601.69;5063249;28;20033;-74
2023/03/22 03:50:15;;;;;;;13.60;7.47;;;;;;;10.11;97.79;100608.81;5066332;28;20029;-74
2023/03/22 03:52:41;;;;;;;9.77;7.03;;;;;;;10.11;97.88;100601.00;5062446;28;20032;-74
2023/03/22 03:55:07;;;;;;;10.63;7.75;;;;;;;10.10;98.30;100601.97;5062449;28;20505;-75
2023/03/22 03:57:33;;;;;;;11.82;7.20;;;;;;;10.07;98.45;100599.66;5064213;28;20021;-74
2023/03/22 03:59:58;;;;;;;10.40;7.95;;;;;;;10.07;98.51;100602.25;5063223;28;20043;-74
2023/03/22 04:02:23;;;;;;;10.63;7.93;;;;;;;10.08;98.30;100606.50;5067516;28;20028;-74
2023/03/22 04:04:49;;;;;;;10.80;7.43;;;;;;;10.10;98.46;100611.56;5064976;28;20020;-74
2023/03/22 04:07:14;;;;;;;13.23;7.88;;;;;;;10.13;98.39;100614.72;5063001;28;20036;-74
2023/03/22 04:09:41;;;;;;;13.70;7.63;;;;;;;10.15;98.08;100610.19;5067076;28;20074;-74
2023/03/22 04:12:08;;;;;;;9.90;7.72;;;;;;;10.16;98.09;100608.41;5065123;28;20437;-74
2023/03/22 04:14:34;;;;;;;14.20;8.18;;;;;;;10.12;98.90;100610.47;5064874;28;20029;-74
2023/03/22 04:16:59;;;;;;;21.65;9.07;;;;;;;10.06;99.71;100613.63;5062753;28;20530;-74
2023/03/22 04:19:25;;;;;;;11.90;7.78;;;;;;;10.08;99.61;100614.31;5061404;28;20457;-73
2023/03/22 04:21:51;;;;;;;18.30;7.75;;;;;;;10.05;100.00;100618.97;5065759;28;20028;-73
2023/03/22 04:24:18;;;;;;;18.42;6.07;;;;;;;10.15;98.58;100618.00;5069701;28;20056;-74
2023/03/22 04:26:43;;;;;;;15.07;7.22;;;;;;;10.34;95.93;100614.59;5067556;28;20166;-74
2023/03/22 04:29:08;;;;;;;9.95;6.35;;;;;;;10.48;94.60;100615.94;5061656;28;20523;-74
2023/03/22 04:31:38;;;;;;;13.88;5.90;;;;;;;10.57;93.24;100618.50;5063924;28;20031;-74
2023/03/22 04:34:06;;;;;;;10.48;5.15;;;;;;;10.63;92.56;100614.53;5063695;28;20043;-74
2023/03/22 04:36:38;;;;;;;13.07;5.80;;;;;;;10.59;93.22;100615.78;5059544;28;20055;-74
2023/03/22 04:39:05;;;;;;;11.02;6.53;;;;;;;10.48;94.29;100615.94;5063061;28;20028;-74
2023/03/22 04:41:31;;;;;;;10.63;7.10;;;;;;;10.30;95.79;100614.06;5068077;28;20093;-74
2023/03/22 04:44:02;;;;;;;8.70;6.75;;;;;;;10.19;96.96;100611.59;5061147;28;20029;-74
2023/03/22 04:46:33;;;;;;;13.43;7.47;;;;;;;10.15;97.43;100607.59;5061896;28;20060;-74
2023/03/22 04:48:58;;;;;;;10.00;8.10;;;;;;;10.12;97.80;100614.84;5062239;28;20114;-74
2023/03/22 04:51:25;;;;;;;11.60;7.90;;;;;;;10.10;98.32;100617.59;5057778;28;20391;-74
2023/03/22 04:53:51;;;;;;;13.32;9.05;;;;;;;10.06;98.58;100613.63;5063635;28;20039;-73
2023/03/22 04:56:17;;;;;;;11.98;8.82;;;;;;;10.05;98.62;100617.19;5060942;28;20116;-74
2023/03/22 04:58:43;;;;;;;9.63;8.02;;;;;;;10.06;98.46;100608.41;5065027;28;20170;-74
2023/03/22 05:01:10;;;;;;;12.43;8.45;;;;;;;10.06;98.69;100613.63;5062924;28;20031;-73
2023/03/22 05:03:36;;;;;;;16.80;9.00;;;;;;;10.04;98.77;100607.72;5062462;28;20599;-74
2023/03/22 05:06:05;;;;;;;13.93;8.50;;;;;;;10.04;99.08;100606.91;5065336;28;20036;-74
2023/03/22 05:08:31;;;;;;;13.85;8.70;;;;;;;10.02;99.06;100607.03;5070526;28;20063;-73
2023/03/22 05:10:59;;;;;;;9.52;8.30;;;;;;;10.01;99.05;100613.19;5066260;28;20471;-74
2023/03/22 05:13:26;;;;;;;11.43;8.70;;;;;;;10.01;99.35;100618.41;5059790;28;20056;-72
2023/03/22 05:15:52;;;;;;;12.23;8.85;;;;;;;9.99;99.82;100615.13;5059333;28;20527;-72
2023/03/22 05:18:19;;;;;;;10.52;8.57;;;;;;;9.97;100.00;100633.47;5058791;28;20666;-73
2023/03/22 05:20:47;;;;;;;12.60;8.88;;;;;;;9.96;100.00;100636.22;5057089;28;20029;-73
2023/03/22 05:23:13;;;;;;;11.85;8.00;;;;;;;9.94;100.00;100633.75;5063630;28;20048;-73
2023/03/22 05:25:39;;;;;;;14.30;9.10;;;;;;;9.91;100.00;100625.41;5055972;28;20377;-73
2023/03/22 05:28:05;;;;;;;10.02;8.68;;;;;;;9.90;100.00;100637.59;5057602;28;20029;-73
2023/03/22 05:30:32;;;;;;;11.57;9.30;;;;;;;9.90;100.00;100631.59;5064754;28;20066;-74
2023/03/22 05:33:01;;;;;;;14.68;9.35;;;;;;;9.89;100.00;100635.97;5057880;28;20032;-74
2023/03/22 05:35:28;;;;;;;23.08;8.45;;;;;;;9.89;100.00;100635.97;5064494;28;20050;-74
2023/03/22 05:37:53;;;;;;;23.15;8.90;;;;;;;9.92;100.00;100640.88;5064948;28;20024;-74
2023/03/22 05:40:19;;;;;;;16.58;8.48;;;;;;;9.93;100.00;100639.09;5061520;28;20032;-74
2023/03/22 05:42:44;;;;;;;10.80;5.63;;;;;;;10.10;99.87;100643.63;5061544;28;20089;-73
2023/03/22 05:45:10;;;;;;;24.52;8.13;;;;;;;10.25;98.58;100642.28;5051753;28;20035;-73
2023/03/22 05:47:38;;;;;;;25.88;7.60;;;;;;;10.31;97.92;100651.34;5065127;28;20052;-74
2023/03/22 05:50:05;;;;;;;12.90;6.85;;;;;;;10.38;96.34;100659.41;5053172;28;20098;-74
2023/03/22 05:52:31;;;;;;;15.00;8.40;;;;;;;10.50;94.83;100650.47;5063276;28;20031;-74
2023/03/22 05:54:56;;;;;;;11.05;7.28;;;;;;;10.57;93.91;100652.38;5063889;28;20032;-74
2023/03/22 05:57:22;;;;;;;11.82;6.32;;;;;;;10.61;93.64;100652.94;5065195;28;20083;-74
2023/03/22 05:59:47;;;;;;;13.27;7.03;;;;;;;10.57;93.75;100664.59;5060385;28;20028;-74
2023/03/22 06:02:13;;;;;;;14.43;6.97;;;;;;;10.63;93.67;100664.03;5062765;28;20040;-73
2023/03/22 06:04:40;;;;;;;10.38;6.85;;;;;;;10.71;92.26;100661.56;5064748;28;20037;-74
2023/03/22 06:07:06;;;;;;;12.18;6.85;;;;;;;10.82;91.10;100666.59;5061560;28;20033;-74
2023/03/22 06:09:32;;;;;;;8.35;6.60;;;;;;;10.86;90.97;100665.38;5063268;28;20028;-74
2023/03/22 06:11:58;;;;;;;11.73;7.22;;;;;;;10.87;90.92;100663.59;5067250;28;20047;-74
2023/03/22 06:14:23;;;;;;;11.38;7.20;;;;;;;10.92;90.42;100666.56;5060005;28;20036;-74
2023/03/22 06:16:49;;;;;;;13.80;7.40;;;;;;;10.96;89.59;100663.53;5065493;28;20090;-74
2023/03/22 06:19:15;;;;;;;10.07;7.30;;;;;;;11.00;89.74;100663.25;5065232;28;20028;-73
2023/03/22 06:21:40;;;;;;;14.02;7.88;;;;;;;11.03;89.33;100661.19;5067845;28;20025;-74
2023/03/22 06:24:06;;;;;;;14.82;8.55;;;;;;;11.03;89.38;100662.97;5065219;28;20061;-74
2023/03/22 06:26:31;;;;;;;17.70;8.43;;;;;;;11.06;89.07;100663.50;5058670;28;20504;-73
2023/03/22 06:28:56;;;;;;;13.88;7.75;;;;;;;11.07;89.78;100670.34;5062444;28;20032;-74
2023/03/22 06:31:22;;;;;;;16.00;8.27;;;;;;;11.06;90.39;100673.94;5070320;28;20172;-74
2023/03/22 06:33:47;;;;;;;13.40;8.07;;;;;;;11.09;89.95;100673.66;5068038;28;20040;-73
2023/03/22 06:36:13;;;;;;;14.52;8.95;;;;;;;11.15;89.59;100667.88;5069239;28;20029;-74
2023/03/22 06:38:38;;;;;;;15.38;7.47;;;;;;;11.24;88.70;100677.44;5071827;28;20017;-74
2023/03/22 06:41:04;;;;;;;18.60;7.57;;;;;;;11.37;88.18;100677.09;5064971;28;20473;-73
2023/03/22 06:43:29;;;;;;;15.25;7.72;;;;;;;11.50;87.59;100677.59;5064156;28;20052;-74
2023/03/22 06:45:56;;;;;;;14.45;8.30;;;;;;;11.71;86.85;100671.31;5068302;28;20036;-73
2023/03/22 06:48:21;;;;;;;11.18;7.55;;;;;;;11.87;85.73;100674.09;5066294;28;20032;-74
2023/03/22 06:50:47;;;;;;;16.55;8.65;;;;;;;12.00;85.30;100671.94;5070515;28;20520;-73
2023/03/22 06:53:13;;;;;;;8.32;6.18;;;;;;;12.08;84.31;100672.03;5069770;28;20077;-73
2023/03/22 06:55:39;;;;;;;8.55;5.47;;;;;;;12.14;83.94;100676.66;5067217;28;20386;-73
2023/03/22 06:58:05;;;;;;;10.27;6.25;;;;;;;12.28;82.73;100677.94;5069721;28;20032;-74
2023/03/22 07:00:31;;;;;;;8.30;5.63;;;;;;;12.51;81.84;100673.03;5066403;28;20036;-74
2023/03/22 07:02:58;;;;;;;12.32;6.97;;;;;;;12.60;81.39;100672.13;5064090;28;20496;-74
2023/03/22 07:05:23;;;;;;;13.55;7.13;;;;;;;12.69;80.58;100667.78;5073149;28;20036;-73
2023/03/22 07:07:49;;;;;;;17.58;7.10;;;;;;;12.79;80.37;100666.69;5070889;28;20127;-74
2023/03/22 07:10:14;;;;;;;11.73;6.90;;;;;;;13.00;80.28;100663.72;5069412;28;20465;-74
2023/03/22 07:12:40;;;;;;;11.00;6.85;;;;;;;13.14;79.05;100676.22;5061352;28;20040;-73
2023/03/22 07:15:06;;;;;;;12.73;7.30;;;;;;;13.22;78.29;100678.09;5063065;28;20812;-74
2023/03/22 07:17:32;;;;;;;18.00;7.40;;;;;;;13.29;77.82;100681.69;5070191;28;20032;-73
2023/03/22 07:19:57;;;;;;;13.57;7.53;;;;;;;13.46;77.74;100665.09;5068334;28;20024;-74
2023/03/22 07:22:23;;;;;;;12.85;8.23;;;;;;;13.54;76.88;100683.44;5064047;28;20062;-74
2023/03/22 07:24:50;;;;;;;14.27;8.07;;;;;;;13.72;76.05;100685.13;5071661;28;20394;-74
2023/03/22 07:27:16;;;;;;;12.90;7.47;;;;;;;13.87;74.97;100683.53;5070564;28;20465;-74
2023/03/22 07:29:42;;;;;;;11.48;7.65;;;;;;;14.08;73.78;100693.56;5071755;28;20130;-74
2023/03/22 07:32:07;;;;;;;9.93;7.43;;;;;;;14.23;74.08;100684.88;5063913;28;20029;-74
2023/03/22 07:34:33;;;;;;;12.05;7.50;;;;;;;14.38;73.87;100684.25;5071930;28;20474;-74
2023/03/22 07:36:59;;;;;;;16.70;7.60;;;;;;;14.80;71.85;100694.56;5060876;28;20478;-74
2023/03/22 07:39:25;;;;;;;9.05;7.30;;;;;;;15.04;70.59;100693.72;5063658;28;20115;-74
2023/03/22 07:41:51;;;;;;;10.90;7.22;;;;;;;15.38;69.98;100689.00;5066919;28;20040;-73
2023/03/22 07:44:17;;;;;;;12.10;7.32;;;;;;;15.71;68.13;100688.88;5067259;28;20036;-73
2023/03/22 07:46:43;;;;;;;12.52;7.82;;;;;;;15.91;68.13;100692.69;5071631;28;20502;-73
2023/03/22 07:49:08;;;;;;;16.13;8.25;;;;;;;15.97;67.85;100689.38;5070392;28;20032;-73
2023/03/22 07:51:34;;;;;;;14.60;8.30;;;;;;;16.02;67.30;100683.59;5065018;28;20067;-73
2023/03/22 07:54:00;;;;;;;14.52;9.32;;;;;;;16.51;66.43;100682.25;5061331;28;20029;-73
2023/03/22 07:56:25;;;;;;;13.52;8.15;;;;;;;16.56;66.39;100684.31;5068565;28;20486;-74
2023/03/22 07:58:51;;;;;;;13.57;8.00;;;;;;;16.47;67.15;100683.59;5071398;28;20098;-73
2023/03/22 08:01:16;;;;;;;13.60;9.40;;;;;;;16.36;67.02;100684.00;5069410;28;20025;-73
2023/03/22 08:03:42;;;;;;;13.13;7.47;;;;;;;16.41;66.51;100678.22;5067198;28;20028;-73
2023/03/22 08:06:08;;;;;;;9.82;7.97;;;;;;;16.45;66.39;100685.56;5067798;28;20032;-73
2023/03/22 08:08:35;;;;;;;12.65;9.63;;;;;;;16.52;66.48;100685.69;5064936;28;20024;-74
2023/03/22 08:11:02;;;;;;;11.98;9.20;;;;;;;16.80;66.33;100684.13;5068083;28;20040;-73
2023/03/22 08:13:27;;;;;;;14.52;9.02;;;;;;;17.33;65.12;100676.13;5070674;28;20027;-74
2023/03/22 08:15:53;;;;;;;14.40;8.30;;;;;;;17.86;64.19;100675.78;5071412;28;20028;-73
2023/03/22 08:18:18;;;;;;;10.10;8.30;;;;;;;18.64;61.82;100679.34;5070660;28;20025;-73
2023/03/22 08:20:44;;;;;;;13.73;8.52;;;;;;;18.47;62.63;100683.22;5067549;28;20482;-73
2023/03/22 08:23:14;;;;;;;12.75;8.73;;;;;;;18.34;63.24;100683.13;5068819;28;20040;-73
2023/03/22 08:25:41;;;;;;;15.65;7.78;;;;;;;18.40;63.46;100680.56;5071565;28;20534;-73
2023/03/22 08:28:08;;;;;;;11.55;7.78;;;;;;;18.47;63.53;100678.75;5064003;28;20036;-71
2023/03/22 08:30:33;;;;;;;12.27;7.70;;;;;;;18.58;62.61;100687.97;5068077;28;20048;-72
2023/03/22 08:32:59;;;;;;;10.65;7.68;;;;;;;18.49;62.30;100686.50;5063989;28;20131;-72
2023/03/22 08:35:24;;;;;;;14.70;9.15;;;;;;;18.90;60.96;100695.34;5053633;28;20029;-72
2023/03/22 08:37:54;;;;;;;19.23;11.00;;;;;;;19.45;59.33;100690.16;5066651;28;20616;-72
2023/03/22 08:40:21;;;;;;;21.83;13.75;;;;;;;19.76;58.21;100684.41;5067692;28;20466;-72
2023/03/22 08:42:47;;;;;;;20.48;13.13;;;;;;;20.15;57.58;100683.69;5065937;28;20119;-72
2023/03/22 08:45:13;;;;;;;23.27;13.27;;;;;;;20.93;55.85;100682.03;5069833;28;20047;-72
2023/03/22 08:47:38;;;;;;;17.92;12.32;;;;;;;21.18;54.59;100684.84;5068388;28;20020;-73
2023/03/22 08:50:04;;;;;;;22.02;12.60;;;;;;;20.59;57.06;100691.06;5064044;28;20031;-71
2023/03/22 08:52:30;;;;;;;20.00;12.60;;;;;;;20.85;56.46;100691.00;5055160;28;20036;-70
2023/03/22 08:54:55;;;;;;;16.95;10.90;;;;;;;20.64;56.68;100696.53;5062146;28;20040;-71
2023/03/22 08:57:22;;;;;;;19.13;12.55;;;;;;;20.18;56.99;100693.84;5060230;28;20024;-71
2023/03/22 08:59:48;;;;;;;17.20;12.07;;;;;;;19.99;58.19;100690.16;5053896;28;20052;-73
2023/03/22 09:02:13;;;;;;;19.15;14.50;;;;;;;19.85;58.24;100688.47;5057156;28;20491;-73
2023/03/22 09:04:39;;;;;;;19.08;12.85;;;;;;;19.55;58.04;100688.81;5067566;28;20036;-73
2023/03/22 09:07:05;;;;;;;18.75;12.63;;;;;;;19.33;59.21;100687.28;5066087;28;20066;-73
2023/03/22 09:09:30;;;;;;;30.70;18.75;;;;;;;19.16;58.43;100685.97;5061351;28;20094;-73
2023/03/22 09:11:56;;;;;;;28.15;17.02;;;;;;;19.13;59.14;100684.53;5061550;28;20075;-73
2023/03/22 09:14:22;;;;;;;24.02;17.35;;;;;;;19.14;58.89;100690.63;5061642;28;20115;-73
2023/03/22 09:16:47;;;;;;;25.67;17.00;;;;;;;19.16;59.68;100688.59;5062947;28;20126;-73
2023/03/22 09:19:13;;;;;;;21.00;15.77;;;;;;;19.12;59.74;100690.00;5057553;28;20106;-73
2023/03/22 09:21:38;;;;;;;25.30;16.00;;;;;;;19.05;59.73;100686.50;5059973;28;20020;-73
2023/03/22 09:24:04;;;;;;;27.52;15.77;;;;;;;18.88;59.70;100693.94;5068344;28;20135;-73
2023/03/22 09:26:29;;;;;;;22.35;14.65;;;;;;;18.65;60.33;100691.53;5057990;28;20112;-73
2023/03/22 09:28:55;;;;;;;27.77;17.80;;;;;;;18.60;61.26;100687.78;5057978;28;20079;-74
2023/03/22 09:31:20;;;;;;;28.33;18.75;;;;;;;18.47;60.69;100688.50;5068148;28;20032;-74
2023/03/22 09:33:46;;;;;;;26.70;18.60;;;;;;;18.39;61.18;100693.94;5066813;28;20040;-73
2023/03/22 09:36:12;;;;;;;29.48;18.00;;;;;;;18.52;60.88;100691.38;5061384;28;20033;-73
2023/03/22 09:38:40;;;;;;;24.17;16.88;;;;;;;18.58;60.56;100690.63;5069835;28;20081;-73
2023/03/22 09:41:16;;;;;;;27.35;18.20;;;;;;;18.62;61.25;100686.63;5066597;28;20114;-73
2023/03/22 09:43:47;;;;;;;34.65;20.10;;;;;;;18.68;61.05;100692.97;5065003;28;20036;-74
2023/03/22 09:46:23;;;;;;;26.95;18.70;;;;;;;18.41;62.08;100681.38;5055218;28;20032;-73
2023/03/22 09:48:50;;;;;;;27.52;18.02;;;;;;;18.28;62.66;100679.44;5063350;28;20036;-74
2023/03/22 09:51:49;;;;;;;29.42;18.42;;;;;;;18.31;61.29;100683.50;5067838;28;20036;-74
2023/03/22 09:54:30;;;;;;;28.80;19.02;;;;;;;18.23;62.49;100677.34;5051450;28;20049;-73
2023/03/22 09:57:07;;;;;;;30.40;19.85;;;;;;;18.06;63.22;100675.97;5061848;28;20036;-73
2023/03/22 09:59:57;;;;;;;31.83;21.25;;;;;;;17.97;61.84;100674.44;5069334;28;20036;-73
2023/03/22 10:02:37;;;;;;;34.72;20.83;;;;;;;18.03;62.75;100668.44;5060759;28;20041;-74
2023/03/22 10:05:37;;;;;;;34.58;21.67;;;;;;;18.14;61.60;100670.56;5068376;28;20417;-73
2023/03/22 10:08:31;;;;;;;29.08;20.83;;;;;;;18.15;61.67;100671.38;5063375;28;20028;-73
2023/03/22 10:10:58;;;;;;;29.48;19.83;;;;;;;18.03;62.87;100668.44;5055065;28;20032;-74
2023/03/22 10:13:47;;;;;;;32.80;23.35;;;;;;;17.89;61.41;100670.16;5060500;28;20033;-74
2023/03/22 10:16:22;;;;;;;34.97;23.27;;;;;;;17.80;62.21;100659.91;5065190;28;20033;-73
2023/03/22 10:18:50;;;;;;;;;;;;;;;17.68;60.34;100677.19;5063194;28;20020;-73
2023/03/22 10:21:16;;;;;;;36.90;23.48;;;;;;;17.62;61.32;100670.00;5058267;28;19999;-73
2023/03/22 10:23:51;;;;;;;40.15;23.52;;;;;;;17.60;61.28;100675.44;5053088;28;20041;-73
2023/03/22 10:26:30;;;;;;;40.10;21.55;;;;;;;17.62;61.22;100672.63;5054156;28;20028;-73
2023/03/22 10:29:02;;;;;;;32.25;20.70;;;;;;;17.70;61.19;100669.91;5065328;28;20028;-73
2023/03/22 10:31:27;;;;;;;32.65;21.75;;;;;;;17.67;60.70;100675.56;5062492;28;20028;-73
2023/03/22 10:33:58;;;;;;;31.02;21.35;;;;;;;17.67;60.15;100681.66;5058682;28;20033;-73
2023/03/22 10:36:30;;;;;;;29.63;20.23;;;;;;;17.72;59.87;100675.81;5064542;28;20055;-74
2023/03/22 10:39:18;;;;;;;28.83;19.83;;;;;;;17.76;60.28;100687.63;5065460;28;20024;-74
2023/03/22 10:41:45;;;;;;;29.67;20.27;;;;;;;17.83;59.84;100677.97;5059392;28;20040;-74
2023/03/22 10:44:18;;;;;;;28.15;21.05;;;;;;;17.78;58.86;100677.72;5067377;28;20067;-74
2023/03/22 10:46:44;;;;;;;31.77;21.52;;;;;;;17.75;59.06;100683.34;5060866;28;20024;-74
2023/03/22 10:49:31;;;;;;;33.42;23.38;;;;;;;17.74;57.99;100676.44;5057984;28;20047;-74
2023/03/22 10:52:02;;;;;;;31.63;21.58;;;;;;;17.78;58.63;100683.00;5064580;28;20105;-74
2023/03/22 10:54:27;;;;;;;27.17;20.40;;;;;;;17.85;58.62;100674.16;5064065;28;20558;-74
2023/03/22 10:56:53;;;;;;;34.45;21.35;;;;;;;17.94;58.51;100669.59;5056463;28;20127;-75
2023/03/22 10:59:46;;;;;;;31.48;21.52;;;;;;;17.97;57.28;100671.00;5064322;28;20029;-74
2023/03/22 11:02:18;;;;;;;27.75;19.98;;;;;;;18.02;58.27;100671.25;5058899;28;20106;-74
2023/03/22 11:04:49;;;;;;;30.00;21.77;;;;;;;17.98;58.63;100668.19;5058373;28;20025;-74
2023/03/22 11:07:35;;;;;;;32.10;20.48;;;;;;;17.94;57.57;100666.13;5060008;28;20033;-74
2023/03/22 11:10:06;;;;;;;29.20;18.73;;;;;;;17.98;57.83;100667.34;5060603;28;20086;-72
2023/03/22 11:12:32;;;;;;;25.20;17.25;;;;;;;17.76;57.83;100662.09;5058474;28;20032;-72
2023/03/22 11:14:58;;;;;;;27.30;18.33;;;;;;;17.55;58.05;100664.66;5058583;28;20044;-72
2023/03/22 11:17:27;;;;;;;22.25;14.05;;;;;;;17.47;56.93;100670.03;5062087;28;20020;-72
2023/03/22 11:19:58;;;;;;;26.45;16.10;;;;;;;17.45;57.50;100666.78;5065664;28;20033;-72
2023/03/22 11:22:25;;;;;;;23.27;13.32;;;;;;;17.58;55.62;100659.81;5069353;28;20028;-72